Terminal Aerodrome Forecast
Issued by NWS

Home | Current Version | Previous Version | Text Only | Print | Product List | Glossary On
Versions: 1 2 3 4 5 6 7 8 9 10 11 12 13 14 15 16 17 18 19 20 21 22 23 24 25 26 27 28 29 30 31
000
FTUS44 KBMX 242340
TAFTCL
TAF
KTCL 242340Z 2500/2524 35008KT P6SM FEW040 SCT150 BKN250
     FM250400 02006KT P6SM FEW040 SCT150 BKN250
      TEMPO 2504/2508 4SM BR
     FM251500 36011KT P6SM BKN150=

USA.gov is the U.S. government's official web portal to all federal, state and local government web resources and services.